PWSweather.com
Personal Weather Stations
Station Observations
01979
Ravne Pri CerknemSI 5282

Ravne Pri CerknemSI 5282

Lat: 46.1213916, Lon: 13.952774299999987

Elevation: 2244.094488

Station Type: Techo Line WS2307

www.vremenska.postaja.andre.si/

High Low Average
Temperature 45.3°F7.4°C 31.3°F-0.4°C 35.8°F2.1°C
Dew Point 32.2°F0.1°C 25.9°F-3.4°C 28.9°F-1.7°C
Winds 7.5 mph 12.1 kmh Calm Calm 2.0 mph E3.2 kmh E
Wind Gusts 11.9 mph19.2 kmh -- 4.0 mph6.4 kmh
Humidity 100% 59% 77%
Pressure 30.22 in1023.4 mb 30.08 in1018.6 mb -
Precipitation 0.00 in0.0 mm - -
Hour Temp Dew Point Humidity Winds Wind Gusts Pressure Precip Precip Rate Daily Precip Total
12:00 AM 32.2°F0.1°C 31.2°F-0.4°C 96% Calm Calm -- 30.09 in1019.0 mb 0.00 in0.0 mm 0.00 in0.0 mm 0.00 in0.0 mm
12:10 AM 31.8°F-0.1°C 30.8°F-0.7°C 96% Calm Calm -- 30.10 in1019.3 mb 0.00 in0.0 mm 0.00 in0.0 mm 0.00 in0.0 mm
12:20 AM 31.8°F-0.1°C 31.8°F-0.1°C 100% Calm Calm -- 30.09 in1019.0 mb 0.00 in0.0 mm 0.00 in0.0 mm 0.00 in0.0 mm
12:30 AM 31.8°F-0.1°C 31.8°F-0.1°C 100% Calm Calm -- 30.09 in1019.0 mb 0.00 in0.0 mm 0.00 in0.0 mm 0.00 in0.0 mm
12:40 AM 31.8°F-0.1°C 31.8°F-0.1°C 100% Calm Calm -- 30.09 in1019.0 mb 0.00 in0.0 mm 0.00 in0.0 mm 0.00 in0.0 mm
12:50 AM 31.8°F-0.1°C 31.8°F-0.1°C 100% Calm Calm -- 30.09 in1019.0 mb 0.00 in0.0 mm 0.00 in0.0 mm 0.00 in0.0 mm
01:00 AM 32.2°F0.1°C 32.2°F0.1°C 100% Calm Calm -- 30.09 in1019.0 mb 0.00 in0.0 mm 0.00 in0.0 mm 0.00 in0.0 mm
01:10 AM 31.8°F-0.1°C 31.8°F-0.1°C 100% Calm Calm -- 30.09 in1019.0 mb 0.00 in0.0 mm 0.00 in0.0 mm 0.00 in0.0 mm
01:20 AM 31.8°F-0.1°C 31.8°F-0.1°C 100% Calm Calm -- 30.08 in1018.6 mb 0.00 in0.0 mm 0.00 in0.0 mm 0.00 in0.0 mm
01:30 AM 31.8°F-0.1°C 31.8°F-0.1°C 100% Calm Calm -- 30.08 in1018.6 mb 0.00 in0.0 mm 0.00 in0.0 mm 0.00 in0.0 mm
01:40 AM 31.3°F-0.4°C 31.3°F-0.4°C 100% Calm Calm -- 30.09 in1019.0 mb 0.00 in0.0 mm 0.00 in0.0 mm 0.00 in0.0 mm
01:50 AM 31.6°F-0.2°C 31.6°F-0.2°C 100% Calm Calm -- 30.09 in1019.0 mb 0.00 in0.0 mm 0.00 in0.0 mm 0.00 in0.0 mm
02:00 AM 32.2°F0.1°C 32.2°F0.1°C 100% Calm Calm -- 30.09 in1019.0 mb 0.00 in0.0 mm 0.00 in0.0 mm 0.00 in0.0 mm
02:03 AM 31.3°F-0.4°C 31.3°F-0.4°C 100% Calm Calm -- 30.09 in1019.0 mb 0.00 in0.0 mm 0.00 in0.0 mm 0.00 in0.0 mm
02:10 AM 32.2°F0.1°C 26.4°F-3.1°C 79% 1.5 mph ESE2.4 kmh ESE 5.1 mph8.2 kmh 30.08 in1018.6 mb 0.00 in0.0 mm 0.00 in0.0 mm 0.00 in0.0 mm
02:20 AM 32.0°F0.0°C 26.2°F-3.2°C 79% Calm Calm -- 30.08 in1018.6 mb 0.00 in0.0 mm 0.00 in0.0 mm 0.00 in0.0 mm
02:30 AM 32.2°F0.1°C 26.4°F-3.1°C 79% Calm Calm -- 30.09 in1019.0 mb 0.00 in0.0 mm 0.00 in0.0 mm 0.00 in0.0 mm
02:40 AM 31.6°F-0.2°C 25.9°F-3.4°C 79% Calm Calm -- 30.09 in1019.0 mb 0.00 in0.0 mm 0.00 in0.0 mm 0.00 in0.0 mm
02:50 AM 31.8°F-0.1°C 26.0°F-3.3°C 79% 1.9 mph SE3.1 kmh SE 5.1 mph8.2 kmh 30.09 in1019.0 mb 0.00 in0.0 mm 0.00 in0.0 mm 0.00 in0.0 mm
03:00 AM 31.8°F-0.1°C 26.4°F-3.1°C 80% 3.8 mph E6.1 kmh E 7.4 mph11.9 kmh 30.09 in1019.0 mb 0.00 in0.0 mm 0.00 in0.0 mm 0.00 in0.0 mm
03:03 AM 31.8°F-0.1°C 26.0°F-3.3°C 79% 2.0 mph E3.2 kmh E 7.4 mph11.9 kmh 30.09 in1019.0 mb 0.00 in0.0 mm 0.00 in0.0 mm 0.00 in0.0 mm
03:10 AM 32.0°F0.0°C 26.5°F-3.1°C 80% 5.2 mph ESE8.4 kmh ESE 9.2 mph14.8 kmh 30.09 in1019.0 mb 0.00 in0.0 mm 0.00 in0.0 mm 0.00 in0.0 mm
03:20 AM 31.8°F-0.1°C 26.4°F-3.1°C 80% 5.8 mph ESE9.3 kmh ESE 11.9 mph19.2 kmh 30.09 in1019.0 mb 0.00 in0.0 mm 0.00 in0.0 mm 0.00 in0.0 mm
03:30 AM 32.2°F0.1°C 26.7°F-2.9°C 80% 2.3 mph E3.7 kmh E 5.8 mph9.3 kmh 30.10 in1019.3 mb 0.00 in0.0 mm 0.00 in0.0 mm 0.00 in0.0 mm
03:40 AM 32.5°F0.3°C 27.1°F-2.7°C 80% 3.0 mph SE4.8 kmh SE 7.8 mph12.6 kmh 30.10 in1019.3 mb 0.00 in0.0 mm 0.00 in0.0 mm 0.00 in0.0 mm
03:50 AM 32.2°F0.1°C 26.7°F-2.9°C 80% 0.7 mph ESE1.1 kmh ESE 8.3 mph13.4 kmh 30.09 in1019.0 mb 0.00 in0.0 mm 0.00 in0.0 mm 0.00 in0.0 mm
04:00 AM 32.2°F0.1°C 26.7°F-2.9°C 80% 5.1 mph ESE8.2 kmh ESE 8.3 mph13.4 kmh 30.10 in1019.3 mb 0.00 in0.0 mm 0.00 in0.0 mm 0.00 in0.0 mm
04:10 AM 32.2°F0.1°C 26.7°F-2.9°C 80% 6.2 mph ESE10.0 kmh ESE 7.2 mph11.6 kmh 30.10 in1019.3 mb 0.00 in0.0 mm 0.00 in0.0 mm 0.00 in0.0 mm
04:20 AM 32.4°F0.2°C 26.9°F-2.8°C 80% 6.5 mph SE10.5 kmh SE 7.2 mph11.6 kmh 30.10 in1019.3 mb 0.00 in0.0 mm 0.00 in0.0 mm 0.00 in0.0 mm
04:30 AM 32.2°F0.1°C 26.7°F-2.9°C 80% 3.2 mph ESE5.1 kmh ESE 7.2 mph11.6 kmh 30.10 in1019.3 mb 0.00 in0.0 mm 0.00 in0.0 mm 0.00 in0.0 mm
04:40 AM 32.2°F0.1°C 26.7°F-2.9°C 80% 3.7 mph E6.0 kmh E 5.8 mph9.3 kmh 30.11 in1019.6 mb 0.00 in0.0 mm 0.00 in0.0 mm 0.00 in0.0 mm
04:50 AM 31.8°F-0.1°C 26.4°F-3.1°C 80% 3.3 mph E5.3 kmh E 6.3 mph10.1 kmh 30.11 in1019.6 mb 0.00 in0.0 mm 0.00 in0.0 mm 0.00 in0.0 mm
05:00 AM 31.8°F-0.1°C 26.4°F-3.1°C 80% 5.7 mph ESE9.2 kmh ESE 6.9 mph11.1 kmh 30.11 in1019.6 mb 0.00 in0.0 mm 0.00 in0.0 mm 0.00 in0.0 mm
05:10 AM 31.8°F-0.1°C 26.4°F-3.1°C 80% 4.3 mph E6.9 kmh E 8.9 mph14.3 kmh 30.11 in1019.6 mb 0.00 in0.0 mm 0.00 in0.0 mm 0.00 in0.0 mm
05:20 AM 32.0°F0.0°C 26.5°F-3.1°C 80% 4.4 mph ESE7.1 kmh ESE 10.1 mph16.3 kmh 30.11 in1019.6 mb 0.00 in0.0 mm 0.00 in0.0 mm 0.00 in0.0 mm
05:30 AM 32.2°F0.1°C 26.7°F-2.9°C 80% 7.0 mph E11.3 kmh E 10.1 mph16.3 kmh 30.11 in1019.6 mb 0.00 in0.0 mm 0.00 in0.0 mm 0.00 in0.0 mm
05:40 AM 32.2°F0.1°C 26.7°F-2.9°C 80% 6.2 mph E10.0 kmh E 8.1 mph13.0 kmh 30.11 in1019.6 mb 0.00 in0.0 mm 0.00 in0.0 mm 0.00 in0.0 mm
05:50 AM 32.2°F0.1°C 26.7°F-2.9°C 80% 5.7 mph E9.2 kmh E 8.1 mph13.0 kmh 30.11 in1019.6 mb 0.00 in0.0 mm 0.00 in0.0 mm 0.00 in0.0 mm
06:00 AM 32.4°F0.2°C 26.6°F-3.0°C 79% 4.1 mph ESE6.6 kmh ESE 6.5 mph10.5 kmh 30.12 in1020.0 mb 0.00 in0.0 mm 0.00 in0.0 mm 0.00 in0.0 mm
06:10 AM 32.5°F0.3°C 26.7°F-2.9°C 79% 4.6 mph E7.4 kmh E 11.0 mph17.7 kmh 30.12 in1020.0 mb 0.00 in0.0 mm 0.00 in0.0 mm 0.00 in0.0 mm
06:20 AM 32.4°F0.2°C 26.6°F-3.0°C 79% 4.0 mph E6.4 kmh E 11.0 mph17.7 kmh 30.12 in1020.0 mb 0.00 in0.0 mm 0.00 in0.0 mm 0.00 in0.0 mm
06:30 AM 32.4°F0.2°C 26.6°F-3.0°C 79% 5.2 mph ESE8.4 kmh ESE 7.6 mph12.2 kmh 30.11 in1019.6 mb 0.00 in0.0 mm 0.00 in0.0 mm 0.00 in0.0 mm
06:40 AM 32.4°F0.2°C 26.9°F-2.8°C 80% 6.4 mph ESE10.3 kmh ESE 7.4 mph11.9 kmh 30.12 in1020.0 mb 0.00 in0.0 mm 0.00 in0.0 mm 0.00 in0.0 mm
06:50 AM 32.5°F0.3°C 27.1°F-2.7°C 80% 3.1 mph ESE5.0 kmh ESE 7.8 mph12.6 kmh 30.13 in1020.3 mb 0.00 in0.0 mm 0.00 in0.0 mm 0.00 in0.0 mm
07:00 AM 32.5°F0.3°C 27.1°F-2.7°C 80% 2.0 mph ESE3.2 kmh ESE 6.7 mph10.8 kmh 30.14 in1020.7 mb 0.00 in0.0 mm 0.00 in0.0 mm 0.00 in0.0 mm
07:10 AM 32.7°F0.4°C 27.2°F-2.7°C 80% 6.2 mph ESE10.0 kmh ESE 8.5 mph13.7 kmh 30.14 in1020.7 mb 0.00 in0.0 mm 0.00 in0.0 mm 0.00 in0.0 mm
07:20 AM 32.7°F0.4°C 27.2°F-2.7°C 80% 7.5 mph ESE12.1 kmh ESE 10.3 mph16.6 kmh 30.14 in1020.7 mb 0.00 in0.0 mm 0.00 in0.0 mm 0.00 in0.0 mm
07:30 AM 32.2°F0.1°C 26.7°F-2.9°C 80% 5.0 mph SE8.0 kmh SE 7.8 mph12.6 kmh 30.14 in1020.7 mb 0.00 in0.0 mm 0.00 in0.0 mm 0.00 in0.0 mm
07:40 AM 32.2°F0.1°C 27.0°F-2.8°C 81% 5.2 mph SE8.4 kmh SE 6.7 mph10.8 kmh 30.15 in1021.0 mb 0.00 in0.0 mm 0.00 in0.0 mm 0.00 in0.0 mm
07:50 AM 31.8°F-0.1°C 26.7°F-2.9°C 81% 1.9 mph ESE3.1 kmh ESE 6.7 mph10.8 kmh 30.16 in1021.3 mb 0.00 in0.0 mm 0.00 in0.0 mm 0.00 in0.0 mm
08:00 AM 31.8°F-0.1°C 26.7°F-2.9°C 81% Calm Calm -- 30.16 in1021.3 mb 0.00 in0.0 mm 0.00 in0.0 mm 0.00 in0.0 mm
08:10 AM 32.2°F0.1°C 27.0°F-2.8°C 81% 3.1 mph SE5.0 kmh SE 6.5 mph10.5 kmh 30.16 in1021.3 mb 0.00 in0.0 mm 0.00 in0.0 mm 0.00 in0.0 mm
08:20 AM 32.2°F0.1°C 27.3°F-2.6°C 82% 1.4 mph E2.3 kmh E 6.5 mph10.5 kmh 30.16 in1021.3 mb 0.00 in0.0 mm 0.00 in0.0 mm 0.00 in0.0 mm
08:30 AM 31.6°F-0.2°C 26.8°F-2.9°C 82% 2.7 mph SSE4.3 kmh SSE 6.3 mph10.1 kmh 30.17 in1021.7 mb 0.00 in0.0 mm 0.00 in0.0 mm 0.00 in0.0 mm
08:40 AM 31.8°F-0.1°C 27.0°F-2.8°C 82% 3.9 mph SSE6.3 kmh SSE 6.3 mph10.1 kmh 30.18 in1022.0 mb 0.00 in0.0 mm 0.00 in0.0 mm 0.00 in0.0 mm
08:50 AM 32.2°F0.1°C 27.3°F-2.6°C 82% 0.3 mph SSE0.5 kmh SSE 1.3 mph2.1 kmh 30.18 in1022.0 mb 0.00 in0.0 mm 0.00 in0.0 mm 0.00 in0.0 mm
09:00 AM 32.5°F0.3°C 27.7°F-2.4°C 82% 1.3 mph SE2.1 kmh SE 6.0 mph9.7 kmh 30.19 in1022.4 mb 0.00 in0.0 mm 0.00 in0.0 mm 0.00 in0.0 mm
09:10 AM 32.7°F0.4°C 27.8°F-2.3°C 82% 0.4 mph S0.6 kmh S 2.5 mph4.0 kmh 30.19 in1022.4 mb 0.00 in0.0 mm 0.00 in0.0 mm 0.00 in0.0 mm
09:20 AM 34.3°F1.3°C 28.8°F-1.8°C 80% 0.6 mph SSW1.0 kmh SSW 2.5 mph4.0 kmh 30.20 in1022.7 mb 0.00 in0.0 mm 0.00 in0.0 mm 0.00 in0.0 mm
09:30 AM 34.9°F1.6°C 29.0°F-1.7°C 79% Calm Calm -- 30.20 in1022.7 mb 0.00 in0.0 mm 0.00 in0.0 mm 0.00 in0.0 mm
09:40 AM 35.4°F1.9°C 29.2°F-1.6°C 78% 1.6 mph SSE2.6 kmh SSE 4.9 mph7.9 kmh 30.20 in1022.7 mb 0.00 in0.0 mm 0.00 in0.0 mm 0.00 in0.0 mm
09:50 AM 35.4°F1.9°C 29.2°F-1.6°C 78% 0.9 mph SE1.4 kmh SE 4.3 mph6.9 kmh 30.20 in1022.7 mb 0.00 in0.0 mm 0.00 in0.0 mm 0.00 in0.0 mm
10:00 AM 36.0°F2.2°C 29.1°F-1.6°C 76% 2.4 mph SSE3.9 kmh SSE 5.4 mph8.7 kmh 30.20 in1022.7 mb 0.00 in0.0 mm 0.00 in0.0 mm 0.00 in0.0 mm
10:10 AM 36.1°F2.3°C 29.3°F-1.5°C 76% 2.4 mph S3.9 kmh S 6.5 mph10.5 kmh 30.20 in1022.7 mb 0.00 in0.0 mm 0.00 in0.0 mm 0.00 in0.0 mm
10:20 AM 37.2°F2.9°C 29.7°F-1.3°C 74% 1.6 mph S2.6 kmh S 4.5 mph7.2 kmh 30.20 in1022.7 mb 0.00 in0.0 mm 0.00 in0.0 mm 0.00 in0.0 mm
10:30 AM 37.2°F2.9°C 29.7°F-1.3°C 74% Calm Calm -- 30.20 in1022.7 mb 0.00 in0.0 mm 0.00 in0.0 mm 0.00 in0.0 mm
10:40 AM 38.1°F3.4°C 30.6°F-0.8°C 74% 2.4 mph E3.9 kmh E 6.7 mph10.8 kmh 30.21 in1023.0 mb 0.00 in0.0 mm 0.00 in0.0 mm 0.00 in0.0 mm
10:50 AM 38.5°F3.6°C 29.9°F-1.2°C 71% 3.8 mph E6.1 kmh E 6.7 mph10.8 kmh 30.20 in1022.7 mb 0.00 in0.0 mm 0.00 in0.0 mm 0.00 in0.0 mm
11:00 AM 39.4°F4.1°C 30.1°F-1.1°C 69% 2.5 mph ESE4.0 kmh ESE 6.5 mph10.5 kmh 30.21 in1023.0 mb 0.00 in0.0 mm 0.00 in0.0 mm 0.00 in0.0 mm
11:10 AM 39.0°F3.9°C 29.7°F-1.3°C 69% 3.9 mph E6.3 kmh E 6.7 mph10.8 kmh 30.21 in1023.0 mb 0.00 in0.0 mm 0.00 in0.0 mm 0.00 in0.0 mm
11:20 AM 40.6°F4.8°C 30.5°F-0.8°C 67% 0.6 mph SE1.0 kmh SE 3.6 mph5.8 kmh 30.21 in1023.0 mb 0.00 in0.0 mm 0.00 in0.0 mm 0.00 in0.0 mm
11:30 AM 43.0°F6.1°C 31.2°F-0.4°C 63% 1.1 mph SSW1.8 kmh SSW 4.9 mph7.9 kmh 30.20 in1022.7 mb 0.00 in0.0 mm 0.00 in0.0 mm 0.00 in0.0 mm
11:40 AM 43.3°F6.3°C 31.6°F-0.2°C 63% 1.2 mph S1.9 kmh S 5.4 mph8.7 kmh 30.21 in1023.0 mb 0.00 in0.0 mm 0.00 in0.0 mm 0.00 in0.0 mm
11:50 AM 43.9°F6.6°C 31.3°F-0.4°C 61% 2.6 mph SW4.2 kmh SW 7.2 mph11.6 kmh 30.21 in1023.0 mb 0.00 in0.0 mm 0.00 in0.0 mm 0.00 in0.0 mm
12:00 PM 43.9°F6.6°C 31.7°F-0.2°C 62% 0.1 mph NNE0.2 kmh NNE 6.9 mph11.1 kmh 30.21 in1023.0 mb 0.00 in0.0 mm 0.00 in0.0 mm 0.00 in0.0 mm
12:10 PM 43.9°F6.6°C 31.3°F-0.4°C 61% 2.7 mph E4.3 kmh E 6.9 mph11.1 kmh 30.21 in1023.0 mb 0.00 in0.0 mm 0.00 in0.0 mm 0.00 in0.0 mm
12:20 PM 42.6°F5.9°C 30.5°F-0.8°C 62% 2.7 mph E4.3 kmh E 8.3 mph13.4 kmh 30.21 in1023.0 mb 0.00 in0.0 mm 0.00 in0.0 mm 0.00 in0.0 mm
12:30 PM 42.6°F5.9°C 30.5°F-0.8°C 62% 2.7 mph S4.3 kmh S 6.5 mph10.5 kmh 30.21 in1023.0 mb 0.00 in0.0 mm 0.00 in0.0 mm 0.00 in0.0 mm
12:40 PM 41.9°F5.5°C 30.2°F-1.0°C 63% 1.8 mph NE2.9 kmh NE 6.5 mph10.5 kmh 30.22 in1023.4 mb 0.00 in0.0 mm 0.00 in0.0 mm 0.00 in0.0 mm
12:50 PM 41.9°F5.5°C 30.2°F-1.0°C 63% 1.1 mph E1.8 kmh E 5.1 mph8.2 kmh 30.21 in1023.0 mb 0.00 in0.0 mm 0.00 in0.0 mm 0.00 in0.0 mm
01:00 PM 42.6°F5.9°C 30.9°F-0.6°C 63% 0.1 mph NNW0.2 kmh NNW 4.3 mph6.9 kmh 30.21 in1023.0 mb 0.00 in0.0 mm 0.00 in0.0 mm 0.00 in0.0 mm
01:10 PM 43.0°F6.1°C 31.2°F-0.4°C 63% 1.4 mph NNW2.3 kmh NNW 4.3 mph6.9 kmh 30.21 in1023.0 mb 0.00 in0.0 mm 0.00 in0.0 mm 0.00 in0.0 mm
01:20 PM 43.5°F6.4°C 31.0°F-0.6°C 61% 1.0 mph ENE1.6 kmh ENE 4.7 mph7.6 kmh 30.21 in1023.0 mb 0.00 in0.0 mm 0.00 in0.0 mm 0.00 in0.0 mm
01:30 PM 43.3°F6.3°C 31.2°F-0.4°C 62% 0.3 mph SE0.5 kmh SE 1.6 mph2.6 kmh 30.21 in1023.0 mb 0.00 in0.0 mm 0.00 in0.0 mm 0.00 in0.0 mm
01:40 PM 43.3°F6.3°C 31.2°F-0.4°C 62% 0.9 mph SSW1.4 kmh SSW 5.6 mph9.0 kmh 30.21 in1023.0 mb 0.00 in0.0 mm 0.00 in0.0 mm 0.00 in0.0 mm
01:50 PM 43.2°F6.2°C 31.0°F-0.6°C 62% 1.7 mph W2.7 kmh W 6.9 mph11.1 kmh 30.21 in1023.0 mb 0.00 in0.0 mm 0.00 in0.0 mm 0.00 in0.0 mm
02:00 PM 44.6°F7.0°C 32.0°F0.0°C 61% Calm Calm -- 30.21 in1023.0 mb 0.00 in0.0 mm 0.00 in0.0 mm 0.00 in0.0 mm
02:10 PM 44.2°F6.8°C 31.2°F-0.4°C 60% Calm Calm -- 30.21 in1023.0 mb 0.00 in0.0 mm 0.00 in0.0 mm 0.00 in0.0 mm
02:20 PM 43.3°F6.3°C 30.8°F-0.7°C 61% 1.7 mph ENE2.7 kmh ENE 3.6 mph5.8 kmh 30.20 in1022.7 mb 0.00 in0.0 mm 0.00 in0.0 mm 0.00 in0.0 mm
02:30 PM 44.4°F6.9°C 32.2°F0.1°C 62% 1.7 mph ENE2.7 kmh ENE 6.7 mph10.8 kmh 30.20 in1022.7 mb 0.00 in0.0 mm 0.00 in0.0 mm 0.00 in0.0 mm
02:40 PM 45.3°F7.4°C 31.8°F-0.1°C 59% 1.5 mph WSW2.4 kmh WSW 6.7 mph10.8 kmh 30.20 in1022.7 mb 0.00 in0.0 mm 0.00 in0.0 mm 0.00 in0.0 mm
02:50 PM 44.2°F6.8°C 31.2°F-0.4°C 60% 3.3 mph SSW5.3 kmh SSW 8.5 mph13.7 kmh 30.20 in1022.7 mb 0.00 in0.0 mm 0.00 in0.0 mm 0.00 in0.0 mm
03:00 PM 44.4°F6.9°C 31.8°F-0.1°C 61% 1.1 mph N1.8 kmh N 4.9 mph7.9 kmh 30.20 in1022.7 mb 0.00 in0.0 mm 0.00 in0.0 mm 0.00 in0.0 mm
03:10 PM 44.8°F7.1°C 31.7°F-0.2°C 60% 1.0 mph WSW1.6 kmh WSW 4.9 mph7.9 kmh 30.21 in1023.0 mb 0.00 in0.0 mm 0.00 in0.0 mm 0.00 in0.0 mm
03:20 PM 44.4°F6.9°C 31.4°F-0.3°C 60% Calm Calm -- 30.20 in1022.7 mb 0.00 in0.0 mm 0.00 in0.0 mm 0.00 in0.0 mm
03:30 PM 43.5°F6.4°C 31.0°F-0.6°C 61% 0.3 mph WSW0.5 kmh WSW 6.7 mph10.8 kmh 30.19 in1022.4 mb 0.00 in0.0 mm 0.00 in0.0 mm 0.00 in0.0 mm
03:40 PM 43.0°F6.1°C 30.8°F-0.7°C 62% 1.1 mph WSW1.8 kmh WSW 6.7 mph10.8 kmh 30.18 in1022.0 mb 0.00 in0.0 mm 0.00 in0.0 mm 0.00 in0.0 mm
03:50 PM 42.6°F5.9°C 30.9°F-0.6°C 63% 1.2 mph NNW1.9 kmh NNW 5.8 mph9.3 kmh 30.19 in1022.4 mb 0.00 in0.0 mm 0.00 in0.0 mm 0.00 in0.0 mm
04:00 PM 41.9°F5.5°C 30.2°F-1.0°C 63% 1.6 mph NNW2.6 kmh NNW 5.8 mph9.3 kmh 30.20 in1022.7 mb 0.00 in0.0 mm 0.00 in0.0 mm 0.00 in0.0 mm
04:10 PM 41.2°F5.1°C 29.9°F-1.2°C 64% 0.5 mph ESE0.8 kmh ESE 2.2 mph3.5 kmh 30.20 in1022.7 mb 0.00 in0.0 mm 0.00 in0.0 mm 0.00 in0.0 mm
04:20 PM 41.4°F5.2°C 30.5°F-0.8°C 65% 0.2 mph WSW0.3 kmh WSW 1.1 mph1.8 kmh 30.20 in1022.7 mb 0.00 in0.0 mm 0.00 in0.0 mm 0.00 in0.0 mm
04:30 PM 41.0°F5.0°C 30.1°F-1.1°C 65% Calm Calm -- 30.20 in1022.7 mb 0.00 in0.0 mm 0.00 in0.0 mm 0.00 in0.0 mm
04:40 PM 40.3°F4.6°C 29.8°F-1.2°C 66% Calm Calm -- 30.20 in1022.7 mb 0.00 in0.0 mm 0.00 in0.0 mm 0.00 in0.0 mm
04:50 PM 39.0°F3.9°C 29.0°F-1.7°C 67% 0.2 mph ENE0.3 kmh ENE 1.3 mph2.1 kmh 30.19 in1022.4 mb 0.00 in0.0 mm 0.00 in0.0 mm 0.00 in0.0 mm
05:00 PM 38.5°F3.6°C 29.2°F-1.6°C 69% 1.6 mph NE2.6 kmh NE 4.0 mph6.4 kmh 30.19 in1022.4 mb 0.00 in0.0 mm 0.00 in0.0 mm 0.00 in0.0 mm
05:10 PM 37.9°F3.3°C 29.0°F-1.7°C 70% 1.1 mph S1.8 kmh S 5.1 mph8.2 kmh 30.20 in1022.7 mb 0.00 in0.0 mm 0.00 in0.0 mm 0.00 in0.0 mm
05:20 PM 37.6°F3.1°C 29.0°F-1.7°C 71% Calm Calm -- 30.20 in1022.7 mb 0.00 in0.0 mm 0.00 in0.0 mm 0.00 in0.0 mm
05:30 PM 37.2°F2.9°C 28.7°F-1.8°C 71% 1.3 mph ENE2.1 kmh ENE 6.0 mph9.7 kmh 30.20 in1022.7 mb 0.00 in0.0 mm 0.00 in0.0 mm 0.00 in0.0 mm
05:40 PM 37.2°F2.9°C 29.0°F-1.7°C 72% 4.1 mph E6.6 kmh E 6.7 mph10.8 kmh 30.20 in1022.7 mb 0.00 in0.0 mm 0.00 in0.0 mm 0.00 in0.0 mm
05:50 PM 37.0°F2.8°C 29.2°F-1.6°C 73% 5.7 mph E9.2 kmh E 9.8 mph15.8 kmh 30.20 in1022.7 mb 0.00 in0.0 mm 0.00 in0.0 mm 0.00 in0.0 mm
06:00 PM 37.0°F2.8°C 29.2°F-1.6°C 73% 5.2 mph E8.4 kmh E 9.8 mph15.8 kmh 30.20 in1022.7 mb 0.00 in0.0 mm 0.00 in0.0 mm 0.00 in0.0 mm
06:10 PM 36.7°F2.6°C 29.2°F-1.6°C 74% 4.6 mph ESE7.4 kmh ESE 6.7 mph10.8 kmh 30.20 in1022.7 mb 0.00 in0.0 mm 0.00 in0.0 mm 0.00 in0.0 mm
06:20 PM 36.7°F2.6°C 29.2°F-1.6°C 74% 7.1 mph E11.4 kmh E 9.4 mph15.1 kmh 30.20 in1022.7 mb 0.00 in0.0 mm 0.00 in0.0 mm 0.00 in0.0 mm
06:30 PM 36.3°F2.4°C 28.8°F-1.8°C 74% 5.2 mph ESE8.4 kmh ESE 8.1 mph13.0 kmh 30.20 in1022.7 mb 0.00 in0.0 mm 0.00 in0.0 mm 0.00 in0.0 mm
06:40 PM 36.1°F2.3°C 28.6°F-1.9°C 74% 2.1 mph E3.4 kmh E 7.2 mph11.6 kmh 30.20 in1022.7 mb 0.00 in0.0 mm 0.00 in0.0 mm 0.00 in0.0 mm
06:50 PM 36.0°F2.2°C 28.8°F-1.8°C 75% 4.6 mph ESE7.4 kmh ESE 7.6 mph12.2 kmh 30.21 in1023.0 mb 0.00 in0.0 mm 0.00 in0.0 mm 0.00 in0.0 mm
07:00 PM 35.8°F2.1°C 28.6°F-1.9°C 75% 1.2 mph ESE1.9 kmh ESE 4.5 mph7.2 kmh 30.20 in1022.7 mb 0.00 in0.0 mm 0.00 in0.0 mm 0.00 in0.0 mm
07:10 PM 35.2°F1.8°C 28.1°F-2.2°C 75% 0.3 mph ESE0.5 kmh ESE 2.0 mph3.2 kmh 30.21 in1023.0 mb 0.00 in0.0 mm 0.00 in0.0 mm 0.00 in0.0 mm
07:20 PM 35.1°F1.7°C 28.3°F-2.1°C 76% Calm Calm -- 30.20 in1022.7 mb 0.00 in0.0 mm 0.00 in0.0 mm 0.00 in0.0 mm
07:30 PM 35.2°F1.8°C 28.4°F-2.0°C 76% Calm Calm -- 30.20 in1022.7 mb 0.00 in0.0 mm 0.00 in0.0 mm 0.00 in0.0 mm
07:40 PM 35.2°F1.8°C 28.4°F-2.0°C 76% Calm Calm -- 30.20 in1022.7 mb 0.00 in0.0 mm 0.00 in0.0 mm 0.00 in0.0 mm
07:50 PM 35.1°F1.7°C 28.3°F-2.1°C 76% Calm Calm -- 30.20 in1022.7 mb 0.00 in0.0 mm 0.00 in0.0 mm 0.00 in0.0 mm
08:00 PM 35.2°F1.8°C 28.8°F-1.8°C 77% 0.6 mph ESE1.0 kmh ESE 3.1 mph5.0 kmh 30.20 in1022.7 mb 0.00 in0.0 mm 0.00 in0.0 mm 0.00 in0.0 mm
08:10 PM 35.2°F1.8°C 28.8°F-1.8°C 77% 0.5 mph ENE0.8 kmh ENE 2.2 mph3.5 kmh 30.20 in1022.7 mb 0.00 in0.0 mm 0.00 in0.0 mm 0.00 in0.0 mm
08:20 PM 34.9°F1.6°C 28.4°F-2.0°C 77% Calm Calm -- 30.19 in1022.4 mb 0.00 in0.0 mm 0.00 in0.0 mm 0.00 in0.0 mm
08:30 PM 35.1°F1.7°C 28.6°F-1.9°C 77% 3.0 mph ESE4.8 kmh ESE 6.9 mph11.1 kmh 30.20 in1022.7 mb 0.00 in0.0 mm 0.00 in0.0 mm 0.00 in0.0 mm
08:40 PM 34.9°F1.6°C 28.4°F-2.0°C 77% Calm Calm -- 30.20 in1022.7 mb 0.00 in0.0 mm 0.00 in0.0 mm 0.00 in0.0 mm
08:50 PM 34.5°F1.4°C 28.1°F-2.2°C 77% Calm Calm -- 30.20 in1022.7 mb 0.00 in0.0 mm 0.00 in0.0 mm 0.00 in0.0 mm
09:00 PM 34.3°F1.3°C 28.2°F-2.1°C 78% Calm Calm -- 30.19 in1022.4 mb 0.00 in0.0 mm 0.00 in0.0 mm 0.00 in0.0 mm
09:10 PM 34.3°F1.3°C 28.2°F-2.1°C 78% Calm Calm -- 30.20 in1022.7 mb 0.00 in0.0 mm 0.00 in0.0 mm 0.00 in0.0 mm
09:20 PM 34.3°F1.3°C 28.5°F-1.9°C 79% 0.9 mph ESE1.4 kmh ESE 2.9 mph4.7 kmh 30.19 in1022.4 mb 0.00 in0.0 mm 0.00 in0.0 mm 0.00 in0.0 mm
09:30 PM 33.6°F0.9°C 27.8°F-2.3°C 79% Calm Calm -- 30.20 in1022.7 mb 0.00 in0.0 mm 0.00 in0.0 mm 0.00 in0.0 mm
09:40 PM 33.6°F0.9°C 27.8°F-2.3°C 79% Calm Calm -- 30.20 in1022.7 mb 0.00 in0.0 mm 0.00 in0.0 mm 0.00 in0.0 mm
09:50 PM 34.2°F1.2°C 28.6°F-1.9°C 80% Calm Calm -- 30.20 in1022.7 mb 0.00 in0.0 mm 0.00 in0.0 mm 0.00 in0.0 mm
10:00 PM 33.6°F0.9°C 28.1°F-2.2°C 80% Calm Calm -- 30.19 in1022.4 mb 0.00 in0.0 mm 0.00 in0.0 mm 0.00 in0.0 mm
10:10 PM 33.6°F0.9°C 28.1°F-2.2°C 80% Calm Calm -- 30.19 in1022.4 mb 0.00 in0.0 mm 0.00 in0.0 mm 0.00 in0.0 mm
10:20 PM 33.6°F0.9°C 28.1°F-2.2°C 80% Calm Calm -- 30.19 in1022.4 mb 0.00 in0.0 mm 0.00 in0.0 mm 0.00 in0.0 mm
10:30 PM 33.8°F1.0°C 28.6°F-1.9°C 81% Calm Calm -- 30.19 in1022.4 mb 0.00 in0.0 mm 0.00 in0.0 mm 0.00 in0.0 mm
10:40 PM 33.6°F0.9°C 28.4°F-2.0°C 81% Calm Calm -- 30.18 in1022.0 mb 0.00 in0.0 mm 0.00 in0.0 mm 0.00 in0.0 mm
10:50 PM 33.1°F0.6°C 27.9°F-2.3°C 81% Calm Calm -- 30.19 in1022.4 mb 0.00 in0.0 mm 0.00 in0.0 mm 0.00 in0.0 mm
11:00 PM 32.7°F0.4°C 27.8°F-2.3°C 82% Calm Calm -- 30.18 in1022.0 mb 0.00 in0.0 mm 0.00 in0.0 mm 0.00 in0.0 mm
11:10 PM 33.1°F0.6°C 28.2°F-2.1°C 82% Calm Calm -- 30.18 in1022.0 mb 0.00 in0.0 mm 0.00 in0.0 mm 0.00 in0.0 mm
11:20 PM 32.9°F0.5°C 28.0°F-2.2°C 82% Calm Calm -- 30.18 in1022.0 mb 0.00 in0.0 mm 0.00 in0.0 mm 0.00 in0.0 mm
11:30 PM 32.5°F0.3°C 27.7°F-2.4°C 82% Calm Calm -- 30.17 in1021.7 mb 0.00 in0.0 mm 0.00 in0.0 mm 0.00 in0.0 mm
11:40 PM 32.7°F0.4°C 27.8°F-2.3°C 82% Calm Calm -- 30.17 in1021.7 mb 0.00 in0.0 mm 0.00 in0.0 mm 0.00 in0.0 mm
11:50 PM 32.2°F0.1°C 27.6°F-2.4°C 83% Calm Calm -- 30.17 in1021.7 mb 0.00 in0.0 mm 0.00 in0.0 mm 0.00 in0.0 mm